sensor_id;sensor_type;location;lat;lon;timestamp;pressure;altitude;pressure_sealevel;temperature;humidity
19827;BME280;10074;52.018;4.726;2023-09-19T00:03:29;46355.59;;;-144.79;100.00
19827;BME280;10074;52.018;4.726;2023-09-19T00:08:31;46351.59;;;-144.79;100.00
19827;BME280;10074;52.018;4.726;2023-09-19T00:13:33;46351.59;;;-144.79;100.00
19827;BME280;10074;52.018;4.726;2023-09-19T00:18:37;46349.59;;;-144.79;100.00
19827;BME280;10074;52.018;4.726;2023-09-19T00:23:38;46343.56;;;-144.79;100.00
19827;BME280;10074;52.018;4.726;2023-09-19T00:28:41;46331.53;;;-144.79;100.00
19827;BME280;10074;52.018;4.726;2023-09-19T00:33:41;46315.50;;;-144.79;100.00
19827;BME280;10074;52.018;4.726;2023-09-19T00:38:41;46301.47;;;-144.79;100.00
19827;BME280;10074;52.018;4.726;2023-09-19T00:43:41;46311.50;;;-144.79;100.00
19827;BME280;10074;52.018;4.726;2023-09-19T00:48:42;46303.47;;;-144.79;100.00
19827;BME280;10074;52.018;4.726;2023-09-19T00:53:46;46297.44;;;-144.79;100.00
19827;BME280;10074;52.018;4.726;2023-09-19T00:58:47;46299.47;;;-144.79;100.00
19827;BME280;10074;52.018;4.726;2023-09-19T01:03:47;46295.44;;;-144.79;100.00
19827;BME280;10074;52.018;4.726;2023-09-19T01:08:48;46287.44;;;-144.79;100.00
19827;BME280;10074;52.018;4.726;2023-09-19T01:14:07;46283.41;;;-144.79;100.00
19827;BME280;10074;52.018;4.726;2023-09-19T01:29:42;46275.41;;;-144.79;100.00
19827;BME280;10074;52.018;4.726;2023-09-19T01:34:49;46279.41;;;-144.79;100.00
19827;BME280;10074;52.018;4.726;2023-09-19T01:39:53;46265.38;;;-144.79;100.00
19827;BME280;10074;52.018;4.726;2023-09-19T01:45:10;46267.38;;;-144.79;100.00
19827;BME280;10074;52.018;4.726;2023-09-19T01:50:30;46267.38;;;-144.79;100.00
19827;BME280;10074;52.018;4.726;2023-09-19T01:55:37;46267.38;;;-144.79;100.00
19827;BME280;10074;52.018;4.726;2023-09-19T02:00:44;46269.38;;;-144.79;100.00
19827;BME280;10074;52.018;4.726;2023-09-19T02:05:49;46267.38;;;-144.79;100.00
19827;BME280;10074;52.018;4.726;2023-09-19T02:10:50;46265.38;;;-144.79;100.00
19827;BME280;10074;52.018;4.726;2023-09-19T02:15:51;46261.34;;;-144.79;100.00
19827;BME280;10074;52.018;4.726;2023-09-19T02:20:53;46259.34;;;-144.79;100.00
19827;BME280;10074;52.018;4.726;2023-09-19T02:25:53;46263.38;;;-144.79;100.00
19827;BME280;10074;52.018;4.726;2023-09-19T02:30:54;46263.38;;;-144.79;100.00
19827;BME280;10074;52.018;4.726;2023-09-19T02:35:58;46265.38;;;-144.79;100.00
19827;BME280;10074;52.018;4.726;2023-09-19T02:40:59;46261.34;;;-144.79;100.00
19827;BME280;10074;52.018;4.726;2023-09-19T02:45:59;46251.34;;;-144.79;100.00
19827;BME280;10074;52.018;4.726;2023-09-19T02:50:59;46261.34;;;-144.79;100.00
19827;BME280;10074;52.018;4.726;2023-09-19T02:56:00;46257.34;;;-144.79;100.00
19827;BME280;10074;52.018;4.726;2023-09-19T03:01:10;46263.38;;;-144.79;100.00
19827;BME280;10074;52.018;4.726;2023-09-19T03:06:12;46255.34;;;-144.79;100.00
19827;BME280;10074;52.018;4.726;2023-09-19T03:11:13;46263.38;;;-144.79;100.00
19827;BME280;10074;52.018;4.726;2023-09-19T03:16:16;46255.34;;;-144.79;100.00
19827;BME280;10074;52.018;4.726;2023-09-19T03:21:16;46259.34;;;-144.79;100.00
19827;BME280;10074;52.018;4.726;2023-09-19T03:26:17;46265.38;;;-144.79;100.00
19827;BME280;10074;52.018;4.726;2023-09-19T03:31:17;46253.34;;;-144.79;100.00
19827;BME280;10074;52.018;4.726;2023-09-19T03:36:18;46269.38;;;-144.79;100.00
19827;BME280;10074;52.018;4.726;2023-09-19T03:41:18;46255.34;;;-144.79;100.00
19827;BME280;10074;52.018;4.726;2023-09-19T03:46:18;46259.34;;;-144.79;100.00
19827;BME280;10074;52.018;4.726;2023-09-19T03:51:19;46259.34;;;-144.79;100.00
19827;BME280;10074;52.018;4.726;2023-09-19T03:56:19;46263.38;;;-144.79;100.00
19827;BME280;10074;52.018;4.726;2023-09-19T04:01:19;46257.34;;;-144.79;100.00
19827;BME280;10074;52.018;4.726;2023-09-19T04:06:19;46249.34;;;-144.79;100.00
19827;BME280;10074;52.018;4.726;2023-09-19T04:11:20;46253.34;;;-144.79;100.00
19827;BME280;10074;52.018;4.726;2023-09-19T04:16:21;46257.34;;;-144.79;100.00
19827;BME280;10074;52.018;4.726;2023-09-19T04:21:21;46255.34;;;-144.79;100.00
19827;BME280;10074;52.018;4.726;2023-09-19T04:26:21;46257.34;;;-144.79;100.00
19827;BME280;10074;52.018;4.726;2023-09-19T04:31:22;46255.34;;;-144.79;100.00
19827;BME280;10074;52.018;4.726;2023-09-19T04:36:22;46261.34;;;-144.79;100.00
19827;BME280;10074;52.018;4.726;2023-09-19T04:41:22;46251.34;;;-144.79;100.00
19827;BME280;10074;52.018;4.726;2023-09-19T04:46:23;46259.34;;;-144.79;100.00
19827;BME280;10074;52.018;4.726;2023-09-19T04:51:23;46261.34;;;-144.79;100.00
19827;BME280;10074;52.018;4.726;2023-09-19T04:56:24;46259.34;;;-144.79;100.00
19827;BME280;10074;52.018;4.726;2023-09-19T05:01:24;46255.34;;;-144.79;100.00
19827;BME280;10074;52.018;4.726;2023-09-19T05:06:25;46253.34;;;-144.79;100.00
19827;BME280;10074;52.018;4.726;2023-09-19T05:11:26;46247.31;;;-144.79;100.00
19827;BME280;10074;52.018;4.726;2023-09-19T05:16:28;46253.34;;;-144.79;100.00
19827;BME280;10074;52.018;4.726;2023-09-19T05:21:32;46261.34;;;-144.79;100.00
19827;BME280;10074;52.018;4.726;2023-09-19T05:26:33;46259.34;;;-144.79;100.00
19827;BME280;10074;52.018;4.726;2023-09-19T05:31:33;46255.34;;;-144.79;100.00
19827;BME280;10074;52.018;4.726;2023-09-19T05:36:36;46263.38;;;-144.79;100.00
19827;BME280;10074;52.018;4.726;2023-09-19T05:41:36;46259.34;;;-144.79;100.00
19827;BME280;10074;52.018;4.726;2023-09-19T05:46:38;46257.34;;;-144.79;100.00
19827;BME280;10074;52.018;4.726;2023-09-19T05:51:39;46259.34;;;-144.79;100.00
19827;BME280;10074;52.018;4.726;2023-09-19T05:56:40;46259.34;;;-144.79;100.00
19827;BME280;10074;52.018;4.726;2023-09-19T06:01:42;46257.34;;;-144.79;100.00
19827;BME280;10074;52.018;4.726;2023-09-19T06:06:43;46259.34;;;-144.79;100.00
19827;BME280;10074;52.018;4.726;2023-09-19T06:11:43;46265.38;;;-144.79;100.00
19827;BME280;10074;52.018;4.726;2023-09-19T06:16:43;46259.34;;;-144.79;100.00
19827;BME280;10074;52.018;4.726;2023-09-19T06:21:44;46259.34;;;-144.79;100.00
19827;BME280;10074;52.018;4.726;2023-09-19T06:26:45;46259.34;;;-144.79;100.00
19827;BME280;10074;52.018;4.726;2023-09-19T06:31:45;46255.34;;;-144.79;100.00
19827;BME280;10074;52.018;4.726;2023-09-19T06:36:47;46261.34;;;-144.79;100.00
19827;BME280;10074;52.018;4.726;2023-09-19T06:41:47;46265.38;;;-144.79;100.00
19827;BME280;10074;52.018;4.726;2023-09-19T06:46:48;46261.34;;;-144.79;100.00
19827;BME280;10074;52.018;4.726;2023-09-19T06:51:54;46267.38;;;-144.79;100.00
19827;BME280;10074;52.018;4.726;2023-09-19T06:56:54;46263.38;;;-144.79;100.00
19827;BME280;10074;52.018;4.726;2023-09-19T07:01:55;46261.34;;;-144.79;100.00
19827;BME280;10074;52.018;4.726;2023-09-19T07:06:55;46263.38;;;-144.79;100.00
19827;BME280;10074;52.018;4.726;2023-09-19T07:11:55;46263.38;;;-144.79;100.00
19827;BME280;10074;52.018;4.726;2023-09-19T07:16:56;46257.34;;;-144.79;100.00
19827;BME280;10074;52.018;4.726;2023-09-19T07:21:56;46261.34;;;-144.79;100.00
19827;BME280;10074;52.018;4.726;2023-09-19T07:26:59;46263.38;;;-144.79;100.00
19827;BME280;10074;52.018;4.726;2023-09-19T07:31:59;46261.34;;;-144.79;100.00
19827;BME280;10074;52.018;4.726;2023-09-19T07:36:59;46259.34;;;-144.79;100.00
19827;BME280;10074;52.018;4.726;2023-09-19T07:42:00;46267.38;;;-144.79;100.00
19827;BME280;10074;52.018;4.726;2023-09-19T07:47:00;46263.38;;;-144.79;100.00
19827;BME280;10074;52.018;4.726;2023-09-19T07:52:03;46267.38;;;-144.79;100.00
19827;BME280;10074;52.018;4.726;2023-09-19T07:57:04;46263.38;;;-144.79;100.00
19827;BME280;10074;52.018;4.726;2023-09-19T08:02:04;46265.38;;;-144.79;100.00
19827;BME280;10074;52.018;4.726;2023-09-19T08:07:05;46265.38;;;-144.79;100.00
19827;BME280;10074;52.018;4.726;2023-09-19T08:12:07;46267.38;;;-144.79;100.00
19827;BME280;10074;52.018;4.726;2023-09-19T08:17:10;46263.38;;;-144.79;100.00
19827;BME280;10074;52.018;4.726;2023-09-19T08:22:10;46261.34;;;-144.79;100.00
19827;BME280;10074;52.018;4.726;2023-09-19T08:27:11;46271.38;;;-144.79;100.00
19827;BME280;10074;52.018;4.726;2023-09-19T08:32:12;46259.34;;;-144.79;100.00
19827;BME280;10074;52.018;4.726;2023-09-19T08:37:12;46263.38;;;-144.79;100.00
19827;BME280;10074;52.018;4.726;2023-09-19T08:42:13;46263.38;;;-144.79;100.00
19827;BME280;10074;52.018;4.726;2023-09-19T08:47:15;46261.34;;;-144.79;100.00
19827;BME280;10074;52.018;4.726;2023-09-19T08:52:32;46259.34;;;-144.79;100.00
19827;BME280;10074;52.018;4.726;2023-09-19T08:57:37;46265.38;;;-144.79;100.00
19827;BME280;10074;52.018;4.726;2023-09-19T09:02:42;46271.38;;;-144.79;100.00
19827;BME280;10074;52.018;4.726;2023-09-19T09:07:43;46269.38;;;-144.79;100.00
19827;BME280;10074;52.018;4.726;2023-09-19T09:12:44;46267.38;;;-144.79;100.00
19827;BME280;10074;52.018;4.726;2023-09-19T09:17:47;46273.38;;;-144.79;100.00
19827;BME280;10074;52.018;4.726;2023-09-19T09:22:55;46269.38;;;-144.79;100.00
19827;BME280;10074;52.018;4.726;2023-09-19T09:28:02;46267.38;;;-144.79;100.00
19827;BME280;10074;52.018;4.726;2023-09-19T09:33:10;46277.41;;;-144.79;100.00
19827;BME280;10074;52.018;4.726;2023-09-19T09:38:11;46267.38;;;-144.79;100.00
19827;BME280;10074;52.018;4.726;2023-09-19T09:43:28;46275.41;;;-144.79;100.00
19827;BME280;10074;52.018;4.726;2023-09-19T09:48:29;46267.38;;;-144.79;100.00
19827;BME280;10074;52.018;4.726;2023-09-19T09:53:32;46267.38;;;-144.79;100.00
19827;BME280;10074;52.018;4.726;2023-09-19T09:58:37;46257.34;;;-144.79;100.00
19827;BME280;10074;52.018;4.726;2023-09-19T10:03:38;46259.34;;;-144.79;100.00
19827;BME280;10074;52.018;4.726;2023-09-19T10:08:39;46265.38;;;-144.79;100.00
19827;BME280;10074;52.018;4.726;2023-09-19T10:13:44;46255.34;;;-144.79;100.00
19827;BME280;10074;52.018;4.726;2023-09-19T10:18:47;46263.38;;;-144.79;100.00
19827;BME280;10074;52.018;4.726;2023-09-19T10:23:51;46263.38;;;-144.79;100.00
19827;BME280;10074;52.018;4.726;2023-09-19T10:28:57;46259.34;;;-144.79;100.00
19827;BME280;10074;52.018;4.726;2023-09-19T10:34:02;46251.34;;;-144.79;100.00
19827;BME280;10074;52.018;4.726;2023-09-19T10:39:04;46251.34;;;-144.79;100.00
19827;BME280;10074;52.018;4.726;2023-09-19T10:44:06;46247.31;;;-144.79;100.00
19827;BME280;10074;52.018;4.726;2023-09-19T10:49:07;46239.31;;;-144.79;100.00
19827;BME280;10074;52.018;4.726;2023-09-19T10:54:12;46247.31;;;-144.79;100.00
19827;BME280;10074;52.018;4.726;2023-09-19T10:59:17;46255.34;;;-144.79;100.00
19827;BME280;10074;52.018;4.726;2023-09-19T11:04:33;46231.28;;;-144.79;100.00
19827;BME280;10074;52.018;4.726;2023-09-19T11:09:55;46245.31;;;-144.79;100.00
19827;BME280;10074;52.018;4.726;2023-09-19T11:15:01;46247.31;;;-144.79;100.00
19827;BME280;10074;52.018;4.726;2023-09-19T11:30:36;46243.31;;;-144.79;100.00
19827;BME280;10074;52.018;4.726;2023-09-19T11:46:29;46253.34;;;-144.79;100.00
19827;BME280;10074;52.018;4.726;2023-09-19T11:51:40;46255.34;;;-144.79;100.00
19827;BME280;10074;52.018;4.726;2023-09-19T11:56:43;46251.34;;;-144.79;100.00
19827;BME280;10074;52.018;4.726;2023-09-19T12:01:51;46253.34;;;-144.79;100.00
19827;BME280;10074;52.018;4.726;2023-09-19T12:06:57;46257.34;;;-144.79;100.00
19827;BME280;10074;52.018;4.726;2023-09-19T12:11:58;46253.34;;;-144.79;100.00
19827;BME280;10074;52.018;4.726;2023-09-19T12:16:58;46251.34;;;-144.79;100.00
19827;BME280;10074;52.018;4.726;2023-09-19T12:22:02;46255.34;;;-144.79;100.00
19827;BME280;10074;52.018;4.726;2023-09-19T12:27:05;46257.34;;;-144.79;100.00
19827;BME280;10074;52.018;4.726;2023-09-19T12:32:06;46255.34;;;-144.79;100.00
19827;BME280;10074;52.018;4.726;2023-09-19T12:37:14;46263.38;;;-144.79;100.00
19827;BME280;10074;52.018;4.726;2023-09-19T12:42:29;46259.34;;;-144.79;100.00
19827;BME280;10074;52.018;4.726;2023-09-19T12:47:35;46265.38;;;-144.79;100.00
19827;BME280;10074;52.018;4.726;2023-09-19T12:52:46;46255.34;;;-144.79;100.00
19827;BME280;10074;52.018;4.726;2023-09-19T12:58:07;46267.38;;;-144.79;100.00
19827;BME280;10074;52.018;4.726;2023-09-19T13:03:15;46261.34;;;-144.79;100.00
19827;BME280;10074;52.018;4.726;2023-09-19T13:08:36;46271.38;;;-144.79;100.00
19827;BME280;10074;52.018;4.726;2023-09-19T13:13:44;46265.38;;;-144.79;100.00
19827;BME280;10074;52.018;4.726;2023-09-19T13:18:51;46269.38;;;-144.79;100.00
19827;BME280;10074;52.018;4.726;2023-09-19T13:23:54;46267.38;;;-144.79;100.00
19827;BME280;10074;52.018;4.726;2023-09-19T13:28:59;46267.38;;;-144.79;100.00
19827;BME280;10074;52.018;4.726;2023-09-19T13:33:59;46267.38;;;-144.79;100.00
19827;BME280;10074;52.018;4.726;2023-09-19T13:38:59;46275.41;;;-144.79;100.00
19827;BME280;10074;52.018;4.726;2023-09-19T13:44:00;46269.38;;;-144.79;100.00
19827;BME280;10074;52.018;4.726;2023-09-19T13:49:03;46261.34;;;-144.79;100.00
19827;BME280;10074;52.018;4.726;2023-09-19T13:54:04;46265.38;;;-144.79;100.00
19827;BME280;10074;52.018;4.726;2023-09-19T13:59:04;46275.41;;;-144.79;100.00
19827;BME280;10074;52.018;4.726;2023-09-19T14:04:05;46267.38;;;-144.79;100.00
19827;BME280;10074;52.018;4.726;2023-09-19T14:09:05;46271.38;;;-144.79;100.00
19827;BME280;10074;52.018;4.726;2023-09-19T14:14:07;46267.38;;;-144.79;100.00
19827;BME280;10074;52.018;4.726;2023-09-19T14:19:08;46267.38;;;-144.79;100.00
19827;BME280;10074;52.018;4.726;2023-09-19T14:24:08;46275.41;;;-144.79;100.00
19827;BME280;10074;52.018;4.726;2023-09-19T14:29:12;46275.41;;;-144.79;100.00
19827;BME280;10074;52.018;4.726;2023-09-19T14:34:13;46281.41;;;-144.79;100.00
19827;BME280;10074;52.018;4.726;2023-09-19T14:39:15;46277.41;;;-144.79;100.00
19827;BME280;10074;52.018;4.726;2023-09-19T14:44:15;46281.41;;;-144.79;100.00
19827;BME280;10074;52.018;4.726;2023-09-19T14:49:16;46275.41;;;-144.79;100.00
19827;BME280;10074;52.018;4.726;2023-09-19T14:54:17;46281.41;;;-144.79;100.00
19827;BME280;10074;52.018;4.726;2023-09-19T14:59:19;46275.41;;;-144.79;100.00
19827;BME280;10074;52.018;4.726;2023-09-19T15:04:20;46279.41;;;-144.79;100.00
19827;BME280;10074;52.018;4.726;2023-09-19T15:09:24;46281.41;;;-144.79;100.00
19827;BME280;10074;52.018;4.726;2023-09-19T15:14:26;46283.41;;;-144.79;100.00
19827;BME280;10074;52.018;4.726;2023-09-19T15:19:26;46279.41;;;-144.79;100.00
19827;BME280;10074;52.018;4.726;2023-09-19T15:24:26;46279.41;;;-144.79;100.00
19827;BME280;10074;52.018;4.726;2023-09-19T15:29:27;46285.41;;;-144.79;100.00
19827;BME280;10074;52.018;4.726;2023-09-19T15:34:28;46281.41;;;-144.79;100.00
19827;BME280;10074;52.018;4.726;2023-09-19T15:39:30;46279.41;;;-144.79;100.00
19827;BME280;10074;52.018;4.726;2023-09-19T15:44:33;46273.38;;;-144.79;100.00
19827;BME280;10074;52.018;4.726;2023-09-19T15:49:34;46281.41;;;-144.79;100.00
19827;BME280;10074;52.018;4.726;2023-09-19T15:54:34;46277.41;;;-144.79;100.00
19827;BME280;10074;52.018;4.726;2023-09-19T15:59:35;46273.38;;;-144.79;100.00
19827;BME280;10074;52.018;4.726;2023-09-19T16:04:35;46285.41;;;-144.79;100.00
19827;BME280;10074;52.018;4.726;2023-09-19T16:09:38;46305.47;;;-144.79;100.00
19827;BME280;10074;52.018;4.726;2023-09-19T16:14:38;46311.50;;;-144.79;100.00
19827;BME280;10074;52.018;4.726;2023-09-19T16:19:39;46317.50;;;-144.79;100.00
19827;BME280;10074;52.018;4.726;2023-09-19T16:24:40;46319.50;;;-144.79;100.00
19827;BME280;10074;52.018;4.726;2023-09-19T16:29:40;46331.53;;;-144.79;100.00
19827;BME280;10074;52.018;4.726;2023-09-19T16:34:40;46333.53;;;-144.79;100.00
19827;BME280;10074;52.018;4.726;2023-09-19T16:39:41;46343.56;;;-144.79;100.00
19827;BME280;10074;52.018;4.726;2023-09-19T16:44:42;46353.59;;;-144.79;100.00
19827;BME280;10074;52.018;4.726;2023-09-19T16:49:42;46361.63;;;-144.79;100.00
19827;BME280;10074;52.018;4.726;2023-09-19T16:54:42;46393.69;;;-144.79;100.00
19827;BME280;10074;52.018;4.726;2023-09-19T16:59:43;46393.69;;;-144.79;100.00
19827;BME280;10074;52.018;4.726;2023-09-19T17:04:43;46397.72;;;-144.79;100.00
19827;BME280;10074;52.018;4.726;2023-09-19T17:09:43;46405.72;;;-144.79;100.00
19827;BME280;10074;52.018;4.726;2023-09-19T17:14:44;46413.75;;;-144.79;100.00
19827;BME280;10074;52.018;4.726;2023-09-19T17:19:44;46423.78;;;-144.79;100.00
19827;BME280;10074;52.018;4.726;2023-09-19T17:24:44;46429.78;;;-144.79;100.00
19827;BME280;10074;52.018;4.726;2023-09-19T17:29:46;46435.81;;;-144.79;100.00
19827;BME280;10074;52.018;4.726;2023-09-19T17:34:47;46445.84;;;-144.79;100.00
19827;BME280;10074;52.018;4.726;2023-09-19T17:39:49;46457.88;;;-144.79;100.00
19827;BME280;10074;52.018;4.726;2023-09-19T17:44:50;46453.84;;;-144.79;100.00
19827;BME280;10074;52.018;4.726;2023-09-19T17:49:51;46455.84;;;-144.79;100.00
19827;BME280;10074;52.018;4.726;2023-09-19T17:54:52;46455.84;;;-144.79;100.00
19827;BME280;10074;52.018;4.726;2023-09-19T17:59:52;46455.84;;;-144.79;100.00
19827;BME280;10074;52.018;4.726;2023-09-19T18:04:52;46459.88;;;-144.79;100.00
19827;BME280;10074;52.018;4.726;2023-09-19T18:09:52;46459.88;;;-144.79;100.00
19827;BME280;10074;52.018;4.726;2023-09-19T18:14:53;46457.88;;;-144.79;100.00
19827;BME280;10074;52.018;4.726;2023-09-19T18:19:53;46463.88;;;-144.79;100.00
19827;BME280;10074;52.018;4.726;2023-09-19T18:24:53;46461.88;;;-144.79;100.00
19827;BME280;10074;52.018;4.726;2023-09-19T18:29:54;46463.88;;;-144.79;100.00
19827;BME280;10074;52.018;4.726;2023-09-19T18:34:54;46463.88;;;-144.79;100.00
19827;BME280;10074;52.018;4.726;2023-09-19T18:39:54;46471.91;;;-144.79;100.00
19827;BME280;10074;52.018;4.726;2023-09-19T18:44:55;46467.88;;;-144.79;100.00
19827;BME280;10074;52.018;4.726;2023-09-19T18:49:55;46465.88;;;-144.79;100.00
19827;BME280;10074;52.018;4.726;2023-09-19T18:54:56;46465.88;;;-144.79;100.00
19827;BME280;10074;52.018;4.726;2023-09-19T18:59:56;46467.88;;;-144.79;100.00
19827;BME280;10074;52.018;4.726;2023-09-19T19:04:56;46469.88;;;-144.79;100.00
19827;BME280;10074;52.018;4.726;2023-09-19T19:09:58;46465.88;;;-144.79;100.00
19827;BME280;10074;52.018;4.726;2023-09-19T19:14:59;46461.88;;;-144.79;100.00
19827;BME280;10074;52.018;4.726;2023-09-19T19:20:01;46467.88;;;-144.79;100.00
19827;BME280;10074;52.018;4.726;2023-09-19T19:25:05;46467.88;;;-144.79;100.00
19827;BME280;10074;52.018;4.726;2023-09-19T19:30:06;46463.88;;;-144.79;100.00
19827;BME280;10074;52.018;4.726;2023-09-19T19:35:07;46465.88;;;-144.79;100.00
19827;BME280;10074;52.018;4.726;2023-09-19T19:40:07;46467.88;;;-144.79;100.00
19827;BME280;10074;52.018;4.726;2023-09-19T19:45:09;46463.88;;;-144.79;100.00
19827;BME280;10074;52.018;4.726;2023-09-19T19:50:09;46463.88;;;-144.79;100.00
19827;BME280;10074;52.018;4.726;2023-09-19T19:55:09;46469.88;;;-144.79;100.00
19827;BME280;10074;52.018;4.726;2023-09-19T20:00:10;46465.88;;;-144.79;100.00
19827;BME280;10074;52.018;4.726;2023-09-19T20:05:11;46463.88;;;-144.79;100.00
19827;BME280;10074;52.018;4.726;2023-09-19T20:10:12;46469.88;;;-144.79;100.00
19827;BME280;10074;52.018;4.726;2023-09-19T20:15:13;46467.88;;;-144.79;100.00
19827;BME280;10074;52.018;4.726;2023-09-19T20:20:13;46467.88;;;-144.79;100.00
19827;BME280;10074;52.018;4.726;2023-09-19T20:25:18;46463.88;;;-144.79;100.00
19827;BME280;10074;52.018;4.726;2023-09-19T20:30:18;46463.88;;;-144.79;100.00
19827;BME280;10074;52.018;4.726;2023-09-19T20:35:19;46467.88;;;-144.79;100.00
19827;BME280;10074;52.018;4.726;2023-09-19T20:40:20;46471.91;;;-144.79;100.00
19827;BME280;10074;52.018;4.726;2023-09-19T20:45:22;46463.88;;;-144.79;100.00
19827;BME280;10074;52.018;4.726;2023-09-19T20:50:22;46467.88;;;-144.79;100.00
19827;BME280;10074;52.018;4.726;2023-09-19T20:55:23;46467.88;;;-144.79;100.00
19827;BME280;10074;52.018;4.726;2023-09-19T21:00:24;46465.88;;;-144.79;100.00
19827;BME280;10074;52.018;4.726;2023-09-19T21:05:24;46463.88;;;-144.79;100.00
19827;BME280;10074;52.018;4.726;2023-09-19T21:10:25;46463.88;;;-144.79;100.00
19827;BME280;10074;52.018;4.726;2023-09-19T21:15:28;46463.88;;;-144.79;100.00
19827;BME280;10074;52.018;4.726;2023-09-19T21:20:28;46467.88;;;-144.79;100.00
19827;BME280;10074;52.018;4.726;2023-09-19T21:25:29;46469.88;;;-144.79;100.00
19827;BME280;10074;52.018;4.726;2023-09-19T21:30:29;46467.88;;;-144.79;100.00
19827;BME280;10074;52.018;4.726;2023-09-19T21:35:29;46467.88;;;-144.79;100.00
19827;BME280;10074;52.018;4.726;2023-09-19T21:40:29;46467.88;;;-144.79;100.00
19827;BME280;10074;52.018;4.726;2023-09-19T21:45:33;46467.88;;;-144.79;100.00
19827;BME280;10074;52.018;4.726;2023-09-19T21:50:33;46471.91;;;-144.79;100.00
19827;BME280;10074;52.018;4.726;2023-09-19T21:55:34;46465.88;;;-144.79;100.00
19827;BME280;10074;52.018;4.726;2023-09-19T22:00:34;46471.91;;;-144.79;100.00
19827;BME280;10074;52.018;4.726;2023-09-19T22:05:38;46465.88;;;-144.79;100.00
19827;BME280;10074;52.018;4.726;2023-09-19T22:15:43;46463.88;;;-144.79;100.00
19827;BME280;10074;52.018;4.726;2023-09-19T22:20:44;46469.88;;;-144.79;100.00
19827;BME280;10074;52.018;4.726;2023-09-19T22:25:52;46467.88;;;-144.79;100.00
19827;BME280;10074;52.018;4.726;2023-09-19T22:30:54;46467.88;;;-144.79;100.00
19827;BME280;10074;52.018;4.726;2023-09-19T22:35:54;46471.91;;;-144.79;100.00
19827;BME280;10074;52.018;4.726;2023-09-19T22:40:56;46469.88;;;-144.79;100.00
19827;BME280;10074;52.018;4.726;2023-09-19T22:46:02;46469.88;;;-144.79;100.00
19827;BME280;10074;52.018;4.726;2023-09-19T22:51:07;46467.88;;;-144.79;100.00
19827;BME280;10074;52.018;4.726;2023-09-19T22:56:08;46465.88;;;-144.79;100.00
19827;BME280;10074;52.018;4.726;2023-09-19T23:01:12;46469.88;;;-144.79;100.00
19827;BME280;10074;52.018;4.726;2023-09-19T23:06:25;46467.88;;;-144.79;100.00
19827;BME280;10074;52.018;4.726;2023-09-19T23:11:25;46469.88;;;-144.79;100.00
19827;BME280;10074;52.018;4.726;2023-09-19T23:16:27;46467.88;;;-144.79;100.00
19827;BME280;10074;52.018;4.726;2023-09-19T23:21:28;46471.91;;;-144.79;100.00
19827;BME280;10074;52.018;4.726;2023-09-19T23:26:29;46467.88;;;-144.79;100.00
19827;BME280;10074;52.018;4.726;2023-09-19T23:31:29;46463.88;;;-144.79;100.00
19827;BME280;10074;52.018;4.726;2023-09-19T23:36:29;46465.88;;;-144.79;100.00
19827;BME280;10074;52.018;4.726;2023-09-19T23:41:30;46467.88;;;-144.79;100.00
19827;BME280;10074;52.018;4.726;2023-09-19T23:46:31;46467.88;;;-144.79;100.00
19827;BME280;10074;52.018;4.726;2023-09-19T23:51:33;46469.88;;;-144.79;100.00
19827;BME280;10074;52.018;4.726;2023-09-19T23:56:36;46467.88;;;-144.79;100.00
